sensor_id;sensor_type;location;lat;lon;timestamp;P1;durP1;ratioP1;P2;durP2;ratioP2
20076;SDS011;12348;42.710;23.378;2023-02-28T00:00:09;35.93;;;16.90;;
20076;SDS011;12348;42.710;23.378;2023-02-28T00:02:38;34.93;;;17.00;;
20076;SDS011;12348;42.710;23.378;2023-02-28T00:05:06;36.43;;;15.20;;
20076;SDS011;12348;42.710;23.378;2023-02-28T00:07:34;38.80;;;15.93;;
20076;SDS011;12348;42.710;23.378;2023-02-28T00:10:02;28.77;;;14.53;;
20076;SDS011;12348;42.710;23.378;2023-02-28T00:12:29;38.87;;;16.77;;
20076;SDS011;12348;42.710;23.378;2023-02-28T00:14:56;37.00;;;15.63;;
20076;SDS011;12348;42.710;23.378;2023-02-28T00:17:24;35.33;;;15.90;;
20076;SDS011;12348;42.710;23.378;2023-02-28T00:19:51;39.03;;;15.07;;
20076;SDS011;12348;42.710;23.378;2023-02-28T00:22:20;28.87;;;15.10;;
20076;SDS011;12348;42.710;23.378;2023-02-28T00:24:48;34.37;;;14.20;;
20076;SDS011;12348;42.710;23.378;2023-02-28T00:27:15;27.93;;;15.20;;
20076;SDS011;12348;42.710;23.378;2023-02-28T00:29:42;33.70;;;14.27;;
20076;SDS011;12348;42.710;23.378;2023-02-28T00:32:08;29.57;;;13.90;;
20076;SDS011;12348;42.710;23.378;2023-02-28T00:34:37;30.27;;;15.17;;
20076;SDS011;12348;42.710;23.378;2023-02-28T00:37:04;26.90;;;13.60;;
20076;SDS011;12348;42.710;23.378;2023-02-28T00:39:33;28.07;;;13.30;;
20076;SDS011;12348;42.710;23.378;2023-02-28T00:42:00;31.40;;;14.90;;
20076;SDS011;12348;42.710;23.378;2023-02-28T00:44:27;34.87;;;14.73;;
20076;SDS011;12348;42.710;23.378;2023-02-28T00:46:54;31.27;;;14.50;;
20076;SDS011;12348;42.710;23.378;2023-02-28T00:49:22;32.20;;;14.07;;
20076;SDS011;12348;42.710;23.378;2023-02-28T00:51:50;29.63;;;13.77;;
20076;SDS011;12348;42.710;23.378;2023-02-28T00:54:18;30.60;;;14.60;;
20076;SDS011;12348;42.710;23.378;2023-02-28T00:56:44;35.73;;;14.93;;
20076;SDS011;12348;42.710;23.378;2023-02-28T00:59:12;34.43;;;14.60;;
20076;SDS011;12348;42.710;23.378;2023-02-28T01:01:39;39.33;;;17.83;;
20076;SDS011;12348;42.710;23.378;2023-02-28T01:04:06;27.47;;;14.33;;
20076;SDS011;12348;42.710;23.378;2023-02-28T01:06:33;31.83;;;14.90;;
20076;SDS011;12348;42.710;23.378;2023-02-28T01:09:02;27.97;;;13.97;;
20076;SDS011;12348;42.710;23.378;2023-02-28T01:11:30;29.83;;;14.33;;
20076;SDS011;12348;42.710;23.378;2023-02-28T01:13:57;29.87;;;13.47;;
20076;SDS011;12348;42.710;23.378;2023-02-28T01:16:25;24.93;;;13.50;;
20076;SDS011;12348;42.710;23.378;2023-02-28T01:18:51;26.87;;;13.07;;
20076;SDS011;12348;42.710;23.378;2023-02-28T01:21:19;31.83;;;12.97;;
20076;SDS011;12348;42.710;23.378;2023-02-28T01:23:47;35.23;;;13.63;;
20076;SDS011;12348;42.710;23.378;2023-02-28T01:26:16;52.20;;;15.60;;
20076;SDS011;12348;42.710;23.378;2023-02-28T01:28:45;26.30;;;12.17;;
20076;SDS011;12348;42.710;23.378;2023-02-28T01:31:12;28.83;;;13.80;;
20076;SDS011;12348;42.710;23.378;2023-02-28T01:33:39;34.70;;;13.83;;
20076;SDS011;12348;42.710;23.378;2023-02-28T01:36:08;27.73;;;14.10;;
20076;SDS011;12348;42.710;23.378;2023-02-28T01:38:36;31.80;;;13.57;;
20076;SDS011;12348;42.710;23.378;2023-02-28T01:41:04;28.03;;;13.73;;
20076;SDS011;12348;42.710;23.378;2023-02-28T01:46:19;29.10;;;12.73;;
20076;SDS011;12348;42.710;23.378;2023-02-28T01:48:47;27.70;;;13.07;;
20076;SDS011;12348;42.710;23.378;2023-02-28T01:51:18;34.93;;;14.23;;
20076;SDS011;12348;42.710;23.378;2023-02-28T01:53:49;30.33;;;13.77;;
20076;SDS011;12348;42.710;23.378;2023-02-28T01:56:19;24.50;;;13.33;;
20076;SDS011;12348;42.710;23.378;2023-02-28T01:58:51;31.70;;;14.07;;
20076;SDS011;12348;42.710;23.378;2023-02-28T02:01:19;25.83;;;12.87;;
20076;SDS011;12348;42.710;23.378;2023-02-28T02:03:48;32.10;;;14.27;;
20076;SDS011;12348;42.710;23.378;2023-02-28T02:06:20;28.77;;;14.43;;
20076;SDS011;12348;42.710;23.378;2023-02-28T02:08:47;30.07;;;15.70;;
20076;SDS011;12348;42.710;23.378;2023-02-28T02:11:14;39.37;;;14.63;;
20076;SDS011;12348;42.710;23.378;2023-02-28T02:13:56;38.30;;;16.03;;
20076;SDS011;12348;42.710;23.378;2023-02-28T02:16:42;31.03;;;14.73;;
20076;SDS011;12348;42.710;23.378;2023-02-28T02:19:28;42.83;;;15.93;;
20076;SDS011;12348;42.710;23.378;2023-02-28T02:25:21;42.07;;;19.17;;
20076;SDS011;12348;42.710;23.378;2023-02-28T02:27:59;45.50;;;16.60;;
20076;SDS011;12348;42.710;23.378;2023-02-28T02:31:05;36.23;;;16.93;;
20076;SDS011;12348;42.710;23.378;2023-02-28T02:37:02;36.87;;;16.60;;
20076;SDS011;12348;42.710;23.378;2023-02-28T02:39:40;41.00;;;16.43;;
20076;SDS011;12348;42.710;23.378;2023-02-28T02:42:16;44.43;;;18.03;;
20076;SDS011;12348;42.710;23.378;2023-02-28T02:44:48;38.13;;;16.53;;
20076;SDS011;12348;42.710;23.378;2023-02-28T02:47:22;36.73;;;16.60;;
20076;SDS011;12348;42.710;23.378;2023-02-28T02:49:54;40.80;;;17.00;;
20076;SDS011;12348;42.710;23.378;2023-02-28T02:52:27;36.40;;;15.40;;
20076;SDS011;12348;42.710;23.378;2023-02-28T02:54:59;39.83;;;16.23;;
20076;SDS011;12348;42.710;23.378;2023-02-28T02:57:30;40.37;;;16.77;;
20076;SDS011;12348;42.710;23.378;2023-02-28T03:00:00;41.07;;;16.97;;
20076;SDS011;12348;42.710;23.378;2023-02-28T03:02:30;44.30;;;17.60;;
20076;SDS011;12348;42.710;23.378;2023-02-28T03:05:03;55.03;;;18.30;;
20076;SDS011;12348;42.710;23.378;2023-02-28T03:07:34;48.90;;;18.77;;
20076;SDS011;12348;42.710;23.378;2023-02-28T03:10:00;46.43;;;19.23;;
20076;SDS011;12348;42.710;23.378;2023-02-28T03:12:31;49.97;;;19.70;;
20076;SDS011;12348;42.710;23.378;2023-02-28T03:15:07;62.37;;;20.40;;
20076;SDS011;12348;42.710;23.378;2023-02-28T03:17:46;53.50;;;20.67;;
20076;SDS011;12348;42.710;23.378;2023-02-28T03:20:27;48.27;;;19.43;;
20076;SDS011;12348;42.710;23.378;2023-02-28T03:23:08;46.93;;;18.87;;
20076;SDS011;12348;42.710;23.378;2023-02-28T03:25:45;43.33;;;18.57;;
20076;SDS011;12348;42.710;23.378;2023-02-28T03:28:21;46.07;;;16.83;;
20076;SDS011;12348;42.710;23.378;2023-02-28T03:30:54;52.07;;;18.97;;
20076;SDS011;12348;42.710;23.378;2023-02-28T03:33:26;42.57;;;17.27;;
20076;SDS011;12348;42.710;23.378;2023-02-28T03:35:58;46.10;;;17.63;;
20076;SDS011;12348;42.710;23.378;2023-02-28T03:38:29;46.37;;;17.10;;
20076;SDS011;12348;42.710;23.378;2023-02-28T03:41:01;42.00;;;18.63;;
20076;SDS011;12348;42.710;23.378;2023-02-28T03:43:33;45.27;;;18.47;;
20076;SDS011;12348;42.710;23.378;2023-02-28T03:46:05;44.70;;;17.90;;
20076;SDS011;12348;42.710;23.378;2023-02-28T03:48:37;42.27;;;18.83;;
20076;SDS011;12348;42.710;23.378;2023-02-28T03:51:10;48.40;;;18.03;;
20076;SDS011;12348;42.710;23.378;2023-02-28T03:53:42;40.80;;;17.63;;
20076;SDS011;12348;42.710;23.378;2023-02-28T03:56:16;51.23;;;20.60;;
20076;SDS011;12348;42.710;23.378;2023-02-28T03:58:47;44.90;;;17.83;;
20076;SDS011;12348;42.710;23.378;2023-02-28T04:01:19;39.13;;;17.47;;
20076;SDS011;12348;42.710;23.378;2023-02-28T04:03:49;31.50;;;15.50;;
20076;SDS011;12348;42.710;23.378;2023-02-28T04:06:19;44.57;;;18.97;;
20076;SDS011;12348;42.710;23.378;2023-02-28T04:08:47;39.67;;;16.87;;
20076;SDS011;12348;42.710;23.378;2023-02-28T04:11:18;44.47;;;18.40;;
20076;SDS011;12348;42.710;23.378;2023-02-28T04:13:47;44.40;;;19.50;;
20076;SDS011;12348;42.710;23.378;2023-02-28T04:16:14;46.73;;;17.80;;
20076;SDS011;12348;42.710;23.378;2023-02-28T04:18:41;58.47;;;20.70;;
20076;SDS011;12348;42.710;23.378;2023-02-28T04:21:09;46.30;;;18.83;;
20076;SDS011;12348;42.710;23.378;2023-02-28T04:23:38;52.67;;;18.77;;
20076;SDS011;12348;42.710;23.378;2023-02-28T04:26:05;50.63;;;20.13;;
20076;SDS011;12348;42.710;23.378;2023-02-28T04:28:32;53.33;;;21.73;;
20076;SDS011;12348;42.710;23.378;2023-02-28T04:31:00;51.93;;;21.20;;
20076;SDS011;12348;42.710;23.378;2023-02-28T04:33:29;68.87;;;21.97;;
20076;SDS011;12348;42.710;23.378;2023-02-28T04:36:00;60.53;;;20.00;;
20076;SDS011;12348;42.710;23.378;2023-02-28T04:38:28;67.50;;;21.83;;
20076;SDS011;12348;42.710;23.378;2023-02-28T04:40:58;54.47;;;19.57;;
20076;SDS011;12348;42.710;23.378;2023-02-28T04:43:25;71.27;;;20.70;;
20076;SDS011;12348;42.710;23.378;2023-02-28T04:45:52;68.67;;;20.07;;
20076;SDS011;12348;42.710;23.378;2023-02-28T04:48:21;94.93;;;19.50;;
20076;SDS011;12348;42.710;23.378;2023-02-28T04:50:48;51.50;;;18.70;;
20076;SDS011;12348;42.710;23.378;2023-02-28T04:53:15;51.90;;;16.53;;
20076;SDS011;12348;42.710;23.378;2023-02-28T04:55:42;44.53;;;16.13;;
20076;SDS011;12348;42.710;23.378;2023-02-28T04:58:10;64.87;;;18.03;;
20076;SDS011;12348;42.710;23.378;2023-02-28T05:00:37;44.37;;;18.37;;
20076;SDS011;12348;42.710;23.378;2023-02-28T05:03:03;67.43;;;19.47;;
20076;SDS011;12348;42.710;23.378;2023-02-28T05:05:30;79.23;;;17.33;;
20076;SDS011;12348;42.710;23.378;2023-02-28T05:07:57;67.67;;;16.53;;
20076;SDS011;12348;42.710;23.378;2023-02-28T05:10:23;65.83;;;19.20;;
20076;SDS011;12348;42.710;23.378;2023-02-28T05:12:50;57.23;;;17.80;;
20076;SDS011;12348;42.710;23.378;2023-02-28T05:15:18;66.13;;;17.10;;
20076;SDS011;12348;42.710;23.378;2023-02-28T05:17:45;68.70;;;19.20;;
20076;SDS011;12348;42.710;23.378;2023-02-28T05:20:12;48.47;;;16.07;;
20076;SDS011;12348;42.710;23.378;2023-02-28T05:22:39;83.47;;;19.30;;
20076;SDS011;12348;42.710;23.378;2023-02-28T05:25:08;74.27;;;17.63;;
20076;SDS011;12348;42.710;23.378;2023-02-28T05:27:37;71.53;;;20.00;;
20076;SDS011;12348;42.710;23.378;2023-02-28T05:30:04;75.50;;;21.97;;
20076;SDS011;12348;42.710;23.378;2023-02-28T05:32:36;59.13;;;21.30;;
20076;SDS011;12348;42.710;23.378;2023-02-28T05:35:04;59.80;;;22.37;;
20076;SDS011;12348;42.710;23.378;2023-02-28T05:37:31;58.80;;;23.17;;
20076;SDS011;12348;42.710;23.378;2023-02-28T05:39:57;62.80;;;21.47;;
20076;SDS011;12348;42.710;23.378;2023-02-28T05:42:24;64.27;;;21.30;;
20076;SDS011;12348;42.710;23.378;2023-02-28T05:44:51;61.60;;;23.13;;
20076;SDS011;12348;42.710;23.378;2023-02-28T05:47:18;122.60;;;24.97;;
20076;SDS011;12348;42.710;23.378;2023-02-28T05:49:46;60.17;;;22.93;;
20076;SDS011;12348;42.710;23.378;2023-02-28T05:52:12;74.97;;;24.83;;
20076;SDS011;12348;42.710;23.378;2023-02-28T05:54:39;69.27;;;22.57;;
20076;SDS011;12348;42.710;23.378;2023-02-28T05:57:06;58.07;;;22.80;;
20076;SDS011;12348;42.710;23.378;2023-02-28T05:59:33;77.57;;;23.03;;
20076;SDS011;12348;42.710;23.378;2023-02-28T06:02:00;58.17;;;20.63;;
20076;SDS011;12348;42.710;23.378;2023-02-28T06:04:26;78.57;;;21.70;;
20076;SDS011;12348;42.710;23.378;2023-02-28T06:06:55;77.27;;;19.67;;
20076;SDS011;12348;42.710;23.378;2023-02-28T06:09:22;58.00;;;22.07;;
20076;SDS011;12348;42.710;23.378;2023-02-28T06:11:50;81.27;;;21.33;;
20076;SDS011;12348;42.710;23.378;2023-02-28T06:14:17;74.10;;;23.27;;
20076;SDS011;12348;42.710;23.378;2023-02-28T06:16:45;62.47;;;22.63;;
20076;SDS011;12348;42.710;23.378;2023-02-28T06:19:12;105.13;;;34.93;;
20076;SDS011;12348;42.710;23.378;2023-02-28T06:21:40;56.07;;;23.47;;
20076;SDS011;12348;42.710;23.378;2023-02-28T06:24:08;65.83;;;23.87;;
20076;SDS011;12348;42.710;23.378;2023-02-28T06:26:35;70.87;;;25.10;;
20076;SDS011;12348;42.710;23.378;2023-02-28T06:29:02;69.73;;;23.63;;
20076;SDS011;12348;42.710;23.378;2023-02-28T06:31:29;58.00;;;22.33;;
20076;SDS011;12348;42.710;23.378;2023-02-28T06:33:56;55.33;;;20.47;;
20076;SDS011;12348;42.710;23.378;2023-02-28T06:36:22;54.70;;;20.67;;
20076;SDS011;12348;42.710;23.378;2023-02-28T06:38:49;55.80;;;20.50;;
20076;SDS011;12348;42.710;23.378;2023-02-28T06:41:21;51.13;;;19.53;;
20076;SDS011;12348;42.710;23.378;2023-02-28T06:43:49;42.77;;;19.43;;
20076;SDS011;12348;42.710;23.378;2023-02-28T06:46:16;45.13;;;19.40;;
20076;SDS011;12348;42.710;23.378;2023-02-28T06:48:42;43.13;;;19.50;;
20076;SDS011;12348;42.710;23.378;2023-02-28T06:51:11;40.80;;;19.30;;
20076;SDS011;12348;42.710;23.378;2023-02-28T06:53:39;50.73;;;20.60;;
20076;SDS011;12348;42.710;23.378;2023-02-28T06:56:07;43.60;;;18.77;;
20076;SDS011;12348;42.710;23.378;2023-02-28T06:58:37;45.57;;;18.57;;
20076;SDS011;12348;42.710;23.378;2023-02-28T07:01:05;40.60;;;19.10;;
20076;SDS011;12348;42.710;23.378;2023-02-28T07:03:34;45.13;;;17.30;;
20076;SDS011;12348;42.710;23.378;2023-02-28T07:06:01;35.73;;;17.87;;
20076;SDS011;12348;42.710;23.378;2023-02-28T07:08:29;46.07;;;20.97;;
20076;SDS011;12348;42.710;23.378;2023-02-28T07:10:56;44.87;;;18.97;;
20076;SDS011;12348;42.710;23.378;2023-02-28T07:13:23;39.97;;;18.40;;
20076;SDS011;12348;42.710;23.378;2023-02-28T07:15:55;31.63;;;15.70;;
20076;SDS011;12348;42.710;23.378;2023-02-28T07:18:23;33.37;;;16.47;;
20076;SDS011;12348;42.710;23.378;2023-02-28T07:20:50;39.10;;;16.70;;
20076;SDS011;12348;42.710;23.378;2023-02-28T07:23:18;40.60;;;16.07;;
20076;SDS011;12348;42.710;23.378;2023-02-28T07:25:44;39.13;;;19.13;;
20076;SDS011;12348;42.710;23.378;2023-02-28T07:28:12;40.77;;;19.23;;
20076;SDS011;12348;42.710;23.378;2023-02-28T07:30:39;35.53;;;17.57;;
20076;SDS011;12348;42.710;23.378;2023-02-28T07:33:08;43.83;;;19.37;;
20076;SDS011;12348;42.710;23.378;2023-02-28T07:35:35;45.40;;;20.23;;
20076;SDS011;12348;42.710;23.378;2023-02-28T07:38:02;39.63;;;19.03;;
20076;SDS011;12348;42.710;23.378;2023-02-28T07:40:29;41.53;;;19.87;;
20076;SDS011;12348;42.710;23.378;2023-02-28T07:42:57;38.13;;;19.43;;
20076;SDS011;12348;42.710;23.378;2023-02-28T07:45:25;42.13;;;19.90;;
20076;SDS011;12348;42.710;23.378;2023-02-28T07:47:53;45.40;;;19.30;;
20076;SDS011;12348;42.710;23.378;2023-02-28T07:50:22;41.17;;;18.73;;
20076;SDS011;12348;42.710;23.378;2023-02-28T07:52:49;44.17;;;20.13;;
20076;SDS011;12348;42.710;23.378;2023-02-28T07:55:16;40.70;;;20.70;;
20076;SDS011;12348;42.710;23.378;2023-02-28T07:57:43;36.23;;;18.93;;
20076;SDS011;12348;42.710;23.378;2023-02-28T08:00:10;36.00;;;20.27;;
20076;SDS011;12348;42.710;23.378;2023-02-28T08:02:38;54.73;;;20.87;;
20076;SDS011;12348;42.710;23.378;2023-02-28T08:05:06;43.07;;;20.57;;
20076;SDS011;12348;42.710;23.378;2023-02-28T08:07:34;38.90;;;20.00;;
20076;SDS011;12348;42.710;23.378;2023-02-28T08:10:01;35.10;;;19.50;;
20076;SDS011;12348;42.710;23.378;2023-02-28T08:12:30;35.90;;;18.90;;
20076;SDS011;12348;42.710;23.378;2023-02-28T08:14:57;38.23;;;18.93;;
20076;SDS011;12348;42.710;23.378;2023-02-28T08:17:24;36.13;;;18.73;;
20076;SDS011;12348;42.710;23.378;2023-02-28T08:19:50;36.17;;;18.50;;
20076;SDS011;12348;42.710;23.378;2023-02-28T08:22:17;36.93;;;20.20;;
20076;SDS011;12348;42.710;23.378;2023-02-28T08:24:45;39.53;;;18.57;;
20076;SDS011;12348;42.710;23.378;2023-02-28T08:27:12;35.37;;;16.60;;
20076;SDS011;12348;42.710;23.378;2023-02-28T08:29:39;34.83;;;18.37;;
20076;SDS011;12348;42.710;23.378;2023-02-28T08:32:06;37.10;;;14.63;;
20076;SDS011;12348;42.710;23.378;2023-02-28T08:34:33;36.50;;;17.30;;
20076;SDS011;12348;42.710;23.378;2023-02-28T08:37:00;27.47;;;14.33;;
20076;SDS011;12348;42.710;23.378;2023-02-28T08:39:26;34.77;;;15.47;;
20076;SDS011;12348;42.710;23.378;2023-02-28T08:41:54;25.70;;;12.27;;
20076;SDS011;12348;42.710;23.378;2023-02-28T08:44:21;25.10;;;12.03;;
20076;SDS011;12348;42.710;23.378;2023-02-28T08:46:48;25.00;;;9.73;;
20076;SDS011;12348;42.710;23.378;2023-02-28T08:49:15;25.23;;;10.57;;
20076;SDS011;12348;42.710;23.378;2023-02-28T08:51:41;17.67;;;9.77;;
20076;SDS011;12348;42.710;23.378;2023-02-28T08:54:08;28.17;;;13.33;;
20076;SDS011;12348;42.710;23.378;2023-02-28T08:56:37;31.73;;;14.37;;
20076;SDS011;12348;42.710;23.378;2023-02-28T08:59:08;30.27;;;13.60;;
20076;SDS011;12348;42.710;23.378;2023-02-28T09:01:35;27.80;;;12.37;;
20076;SDS011;12348;42.710;23.378;2023-02-28T09:04:02;33.07;;;12.93;;
20076;SDS011;12348;42.710;23.378;2023-02-28T09:06:29;23.03;;;11.07;;
20076;SDS011;12348;42.710;23.378;2023-02-28T09:08:56;29.60;;;13.20;;
20076;SDS011;12348;42.710;23.378;2023-02-28T09:11:24;14.30;;;7.30;;
20076;SDS011;12348;42.710;23.378;2023-02-28T09:13:51;36.83;;;10.27;;
20076;SDS011;12348;42.710;23.378;2023-02-28T09:16:21;33.33;;;13.27;;
20076;SDS011;12348;42.710;23.378;2023-02-28T09:18:48;23.30;;;10.10;;
20076;SDS011;12348;42.710;23.378;2023-02-28T09:21:16;31.43;;;12.37;;
20076;SDS011;12348;42.710;23.378;2023-02-28T09:23:45;21.07;;;11.60;;
20076;SDS011;12348;42.710;23.378;2023-02-28T09:26:15;22.70;;;10.03;;
20076;SDS011;12348;42.710;23.378;2023-02-28T09:28:44;20.33;;;9.67;;
20076;SDS011;12348;42.710;23.378;2023-02-28T09:31:11;30.40;;;13.00;;
20076;SDS011;12348;42.710;23.378;2023-02-28T09:33:40;32.17;;;11.50;;
20076;SDS011;12348;42.710;23.378;2023-02-28T09:36:07;24.27;;;9.67;;
20076;SDS011;12348;42.710;23.378;2023-02-28T09:38:34;27.27;;;10.60;;
20076;SDS011;12348;42.710;23.378;2023-02-28T09:41:02;17.80;;;8.27;;
20076;SDS011;12348;42.710;23.378;2023-02-28T09:43:37;21.23;;;10.97;;
20076;SDS011;12348;42.710;23.378;2023-02-28T09:46:10;27.93;;;12.10;;
20076;SDS011;12348;42.710;23.378;2023-02-28T09:48:45;24.00;;;11.27;;
20076;SDS011;12348;42.710;23.378;2023-02-28T09:51:16;33.00;;;12.20;;
20076;SDS011;12348;42.710;23.378;2023-02-28T09:53:54;27.67;;;12.07;;
20076;SDS011;12348;42.710;23.378;2023-02-28T09:56:21;24.87;;;10.77;;
20076;SDS011;12348;42.710;23.378;2023-02-28T09:58:53;29.43;;;11.73;;
20076;SDS011;12348;42.710;23.378;2023-02-28T10:01:24;28.97;;;9.20;;
20076;SDS011;12348;42.710;23.378;2023-02-28T10:03:59;29.73;;;11.30;;
20076;SDS011;12348;42.710;23.378;2023-02-28T10:06:32;30.10;;;11.83;;
20076;SDS011;12348;42.710;23.378;2023-02-28T10:09:05;29.77;;;10.70;;
20076;SDS011;12348;42.710;23.378;2023-02-28T10:11:38;16.83;;;9.23;;
20076;SDS011;12348;42.710;23.378;2023-02-28T10:14:10;15.23;;;7.20;;
20076;SDS011;12348;42.710;23.378;2023-02-28T10:16:41;24.17;;;9.20;;
20076;SDS011;12348;42.710;23.378;2023-02-28T10:19:19;21.30;;;10.63;;
20076;SDS011;12348;42.710;23.378;2023-02-28T10:21:50;16.23;;;8.83;;
20076;SDS011;12348;42.710;23.378;2023-02-28T10:27:16;22.87;;;9.97;;
20076;SDS011;12348;42.710;23.378;2023-02-28T10:33:08;22.53;;;10.67;;
20076;SDS011;12348;42.710;23.378;2023-02-28T10:35:45;21.93;;;8.67;;
20076;SDS011;12348;42.710;23.378;2023-02-28T10:38:15;24.30;;;10.70;;
20076;SDS011;12348;42.710;23.378;2023-02-28T10:40:44;23.53;;;11.50;;
20076;SDS011;12348;42.710;23.378;2023-02-28T10:43:21;23.63;;;10.87;;
20076;SDS011;12348;42.710;23.378;2023-02-28T10:45:53;20.87;;;8.53;;
20076;SDS011;12348;42.710;23.378;2023-02-28T10:48:28;17.10;;;7.83;;
20076;SDS011;12348;42.710;23.378;2023-02-28T10:51:02;28.00;;;12.20;;
20076;SDS011;12348;42.710;23.378;2023-02-28T10:53:35;21.83;;;10.53;;
20076;SDS011;12348;42.710;23.378;2023-02-28T10:56:09;23.07;;;11.07;;
20076;SDS011;12348;42.710;23.378;2023-02-28T10:58:47;21.47;;;11.03;;
20076;SDS011;12348;42.710;23.378;2023-02-28T11:01:17;25.97;;;11.03;;
20076;SDS011;12348;42.710;23.378;2023-02-28T11:03:46;30.57;;;10.97;;
20076;SDS011;12348;42.710;23.378;2023-02-28T11:06:15;20.87;;;9.93;;
20076;SDS011;12348;42.710;23.378;2023-02-28T11:08:48;23.17;;;10.70;;
20076;SDS011;12348;42.710;23.378;2023-02-28T11:11:18;21.50;;;10.13;;
20076;SDS011;12348;42.710;23.378;2023-02-28T11:13:46;28.60;;;10.83;;
20076;SDS011;12348;42.710;23.378;2023-02-28T11:16:16;30.60;;;10.07;;
20076;SDS011;12348;42.710;23.378;2023-02-28T11:18:44;27.00;;;11.90;;
20076;SDS011;12348;42.710;23.378;2023-02-28T11:21:18;18.50;;;8.90;;
20076;SDS011;12348;42.710;23.378;2023-02-28T11:23:49;29.37;;;10.63;;
20076;SDS011;12348;42.710;23.378;2023-02-28T11:29:12;21.67;;;10.97;;
20076;SDS011;12348;42.710;23.378;2023-02-28T11:31:49;24.37;;;10.60;;
20076;SDS011;12348;42.710;23.378;2023-02-28T11:34:27;21.67;;;10.07;;
20076;SDS011;12348;42.710;23.378;2023-02-28T11:36:57;15.63;;;7.57;;
20076;SDS011;12348;42.710;23.378;2023-02-28T11:39:25;19.23;;;7.83;;
20076;SDS011;12348;42.710;23.378;2023-02-28T11:41:59;23.23;;;11.23;;
20076;SDS011;12348;42.710;23.378;2023-02-28T11:44:39;22.57;;;11.00;;
20076;SDS011;12348;42.710;23.378;2023-02-28T11:47:21;21.03;;;9.13;;
20076;SDS011;12348;42.710;23.378;2023-02-28T11:50:01;20.13;;;8.87;;
20076;SDS011;12348;42.710;23.378;2023-02-28T11:52:42;28.13;;;11.70;;
20076;SDS011;12348;42.710;23.378;2023-02-28T11:55:16;22.57;;;10.13;;
20076;SDS011;12348;42.710;23.378;2023-02-28T12:00:55;22.90;;;9.37;;
20076;SDS011;12348;42.710;23.378;2023-02-28T12:03:44;23.83;;;10.13;;
20076;SDS011;12348;42.710;23.378;2023-02-28T12:06:24;28.57;;;9.03;;
20076;SDS011;12348;42.710;23.378;2023-02-28T12:09:11;19.40;;;8.90;;
20076;SDS011;12348;42.710;23.378;2023-02-28T12:11:51;18.70;;;7.97;;
20076;SDS011;12348;42.710;23.378;2023-02-28T12:14:27;21.77;;;9.07;;
20076;SDS011;12348;42.710;23.378;2023-02-28T12:17:30;20.10;;;7.30;;
20076;SDS011;12348;42.710;23.378;2023-02-28T12:20:06;28.40;;;9.07;;
20076;SDS011;12348;42.710;23.378;2023-02-28T12:22:42;19.23;;;8.17;;
20076;SDS011;12348;42.710;23.378;2023-02-28T12:25:26;18.33;;;7.20;;
20076;SDS011;12348;42.710;23.378;2023-02-28T12:28:12;16.07;;;7.30;;
20076;SDS011;12348;42.710;23.378;2023-02-28T12:30:41;30.53;;;9.77;;
20076;SDS011;12348;42.710;23.378;2023-02-28T12:33:16;19.50;;;9.27;;
20076;SDS011;12348;42.710;23.378;2023-02-28T12:35:47;19.77;;;8.53;;
20076;SDS011;12348;42.710;23.378;2023-02-28T12:38:21;17.40;;;7.80;;
20076;SDS011;12348;42.710;23.378;2023-02-28T12:40:54;20.93;;;8.07;;
20076;SDS011;12348;42.710;23.378;2023-02-28T12:43:27;25.27;;;9.07;;
20076;SDS011;12348;42.710;23.378;2023-02-28T12:46:00;18.40;;;8.40;;
20076;SDS011;12348;42.710;23.378;2023-02-28T12:48:37;22.17;;;8.27;;
20076;SDS011;12348;42.710;23.378;2023-02-28T12:51:07;20.90;;;9.40;;
20076;SDS011;12348;42.710;23.378;2023-02-28T12:53:38;23.30;;;9.70;;
20076;SDS011;12348;42.710;23.378;2023-02-28T12:56:19;32.50;;;10.63;;
20076;SDS011;12348;42.710;23.378;2023-02-28T12:58:56;23.23;;;9.73;;
20076;SDS011;12348;42.710;23.378;2023-02-28T13:01:36;25.93;;;10.33;;
20076;SDS011;12348;42.710;23.378;2023-02-28T13:04:23;19.97;;;10.47;;
20076;SDS011;12348;42.710;23.378;2023-02-28T13:07:13;20.83;;;8.70;;
20076;SDS011;12348;42.710;23.378;2023-02-28T13:09:59;17.67;;;9.00;;
20076;SDS011;12348;42.710;23.378;2023-02-28T13:12:30;19.13;;;9.17;;
20076;SDS011;12348;42.710;23.378;2023-02-28T13:15:01;39.37;;;8.53;;
20076;SDS011;12348;42.710;23.378;2023-02-28T13:17:37;20.87;;;9.57;;
20076;SDS011;12348;42.710;23.378;2023-02-28T13:20:13;23.63;;;9.63;;
20076;SDS011;12348;42.710;23.378;2023-02-28T13:22:42;23.90;;;10.50;;
20076;SDS011;12348;42.710;23.378;2023-02-28T13:34:38;24.07;;;9.33;;
20076;SDS011;12348;42.710;23.378;2023-02-28T13:43:02;19.93;;;9.13;;
20076;SDS011;12348;42.710;23.378;2023-02-28T13:45:29;16.83;;;6.90;;
20076;SDS011;12348;42.710;23.378;2023-02-28T13:48:03;15.93;;;8.23;;
20076;SDS011;12348;42.710;23.378;2023-02-28T13:50:33;14.47;;;7.60;;
20076;SDS011;12348;42.710;23.378;2023-02-28T13:56:19;28.50;;;8.40;;
20076;SDS011;12348;42.710;23.378;2023-02-28T13:58:54;21.47;;;8.23;;
20076;SDS011;12348;42.710;23.378;2023-02-28T14:01:31;26.90;;;10.73;;
20076;SDS011;12348;42.710;23.378;2023-02-28T14:04:12;18.37;;;7.33;;
20076;SDS011;12348;42.710;23.378;2023-02-28T14:06:57;27.00;;;9.57;;
20076;SDS011;12348;42.710;23.378;2023-02-28T14:09:25;19.87;;;9.33;;
20076;SDS011;12348;42.710;23.378;2023-02-28T14:11:55;18.70;;;8.60;;
20076;SDS011;12348;42.710;23.378;2023-02-28T14:17:22;18.83;;;8.30;;
20076;SDS011;12348;42.710;23.378;2023-02-28T14:19:50;26.37;;;9.87;;
20076;SDS011;12348;42.710;23.378;2023-02-28T14:22:21;16.70;;;7.43;;
20076;SDS011;12348;42.710;23.378;2023-02-28T14:25:09;18.57;;;9.40;;
20076;SDS011;12348;42.710;23.378;2023-02-28T14:27:45;26.20;;;9.73;;
20076;SDS011;12348;42.710;23.378;2023-02-28T14:33:25;25.57;;;9.03;;
20076;SDS011;12348;42.710;23.378;2023-02-28T14:36:07;23.70;;;10.07;;
20076;SDS011;12348;42.710;23.378;2023-02-28T14:38:41;16.43;;;7.83;;
20076;SDS011;12348;42.710;23.378;2023-02-28T14:41:20;27.23;;;8.30;;
20076;SDS011;12348;42.710;23.378;2023-02-28T14:43:56;15.97;;;8.60;;
20076;SDS011;12348;42.710;23.378;2023-02-28T14:46:25;20.40;;;8.97;;
20076;SDS011;12348;42.710;23.378;2023-02-28T14:48:55;22.33;;;8.97;;
20076;SDS011;12348;42.710;23.378;2023-02-28T14:51:23;18.93;;;7.30;;
20076;SDS011;12348;42.710;23.378;2023-02-28T14:53:57;18.80;;;8.63;;
20076;SDS011;12348;42.710;23.378;2023-02-28T14:56:27;13.93;;;8.47;;
20076;SDS011;12348;42.710;23.378;2023-02-28T14:58:59;20.63;;;8.90;;
20076;SDS011;12348;42.710;23.378;2023-02-28T15:01:26;15.23;;;8.73;;
20076;SDS011;12348;42.710;23.378;2023-02-28T15:04:00;16.60;;;7.40;;
20076;SDS011;12348;42.710;23.378;2023-02-28T15:06:28;19.10;;;9.37;;
20076;SDS011;12348;42.710;23.378;2023-02-28T15:09:10;15.93;;;8.53;;
20076;SDS011;12348;42.710;23.378;2023-02-28T15:11:40;13.30;;;7.50;;
20076;SDS011;12348;42.710;23.378;2023-02-28T15:14:13;15.77;;;8.83;;
20076;SDS011;12348;42.710;23.378;2023-02-28T15:16:43;14.03;;;7.07;;